createdAt,value
2023-06-23T06:22:29.424Z,1004.65
2023-06-23T06:32:29.328Z,1004.87
2023-06-23T06:42:29.596Z,1005.05
2023-06-23T06:52:40.880Z,1005.39
2023-06-23T07:02:29.480Z,1005.67
2023-06-23T07:12:29.397Z,1005.93
2023-06-23T07:22:29.412Z,1006.31
2023-06-23T07:32:29.640Z,1006.54
2023-06-23T07:42:29.467Z,1006.75
2023-06-23T07:52:29.632Z,1006.78
2023-06-23T08:02:29.368Z,1006.91
2023-06-23T08:12:29.439Z,1007.18
2023-06-23T08:22:29.566Z,1007.32
2023-06-23T08:32:29.730Z,1007.66
2023-06-23T08:42:29.642Z,1007.95
2023-06-23T08:52:29.736Z,1008.26
2023-06-23T09:02:29.616Z,1008.39
2023-06-23T09:12:29.538Z,1008.54
2023-06-23T09:22:29.533Z,1008.62
2023-06-23T09:32:29.438Z,1008.84
2023-06-23T09:42:29.434Z,1009.07
2023-06-23T09:52:29.328Z,1009.23
2023-06-23T10:02:32.969Z,1009.42
2023-06-23T10:12:29.526Z,1009.44
2023-06-23T10:22:29.447Z,1009.53
2023-06-23T10:32:29.630Z,1009.58
2023-06-23T10:42:29.533Z,1009.74
2023-06-23T10:52:29.790Z,1009.76
2023-06-23T11:02:29.560Z,1009.99
2023-06-23T11:12:29.542Z,1010.16
2023-06-23T11:22:29.685Z,1010.28
2023-06-23T11:32:29.571Z,1010.46
2023-06-23T11:42:29.400Z,1010.60
2023-06-23T11:52:29.416Z,1010.85
2023-06-23T12:02:29.550Z,1010.96
2023-06-23T12:12:29.600Z,1010.99
2023-06-23T12:22:29.557Z,1011.17
2023-06-23T12:32:29.549Z,1011.40
2023-06-23T12:42:29.610Z,1011.43
2023-06-23T12:52:29.510Z,1011.39
2023-06-23T13:02:29.488Z,1011.42
2023-06-23T13:12:29.586Z,1011.53
2023-06-23T13:22:29.650Z,1011.60
2023-06-23T13:32:29.386Z,1011.62
2023-06-23T13:42:29.504Z,1011.66
2023-06-23T13:52:29.559Z,1011.66
2023-06-23T14:02:29.686Z,1011.84
2023-06-23T14:12:29.833Z,1011.89
2023-06-23T14:22:29.481Z,1012.03
2023-06-23T14:32:29.609Z,1012.30
2023-06-23T14:42:29.526Z,1012.78
2023-06-23T14:52:29.737Z,1013.22
2023-06-23T15:02:29.519Z,1014.01
2023-06-23T15:12:29.532Z,1014.31
2023-06-23T15:22:29.940Z,1014.66
2023-06-23T15:32:29.496Z,1014.88
2023-06-23T15:42:29.584Z,1014.97
2023-06-23T15:52:29.719Z,1014.86
2023-06-23T16:02:29.729Z,1014.98
2023-06-23T16:12:29.664Z,1014.94
2023-06-23T16:22:29.919Z,1014.90
2023-06-23T16:32:29.804Z,1014.95
2023-06-23T16:42:29.746Z,1014.93
2023-06-23T16:52:29.824Z,1014.94
2023-06-23T17:02:29.860Z,1014.97
2023-06-23T17:12:29.771Z,1015.03
2023-06-23T17:22:29.839Z,1014.99
2023-06-23T17:32:29.841Z,1015.07
2023-06-23T17:42:29.876Z,1015.00
2023-06-23T17:52:29.915Z,1014.93
2023-06-23T18:02:29.771Z,1015.02
2023-06-23T18:12:29.968Z,1015.04
2023-06-23T18:22:29.803Z,1015.10
2023-06-23T18:32:30.047Z,1015.03
2023-06-23T18:42:29.841Z,1015.01
2023-06-23T18:52:29.868Z,1014.93
2023-06-23T19:02:30.033Z,1014.84
2023-06-23T19:12:29.939Z,1014.80
2023-06-23T19:22:29.838Z,1014.87
